Time;durP1;ratioP1;P1;durP2;ratioP2;P2;SDS_P1;SDS_P2;PMS_P1;PMS_P2;Temp;Humidity;BMP_temperature;BMP_pressure;BME280_temperature;BME280_humidity;BME280_pressure;Samples;Min_cycle;Max_cycle;Signal;HPM_P1;HPM_P2
2021/12/24 00:00:54;;;;;;;230.35;59.35;;;5.20;99.90;;;;;;5115960;28;20047;-76
2021/12/24 00:03:20;;;;;;;217.43;58.13;;;5.20;99.90;;;;;;5114547;28;20492;-76
2021/12/24 00:05:46;;;;;;;222.35;59.40;;;5.20;99.90;;;;;;5095526;28;20404;-77
2021/12/24 00:08:12;;;;;;;197.63;57.13;;;5.20;99.90;;;;;;5100952;28;20043;-77
2021/12/24 00:10:39;;;;;;;210.48;57.42;;;5.20;99.90;;;;;;5115311;28;20114;-77
2021/12/24 00:13:10;;;;;;;205.48;56.08;;;5.20;99.90;;;;;;5113044;28;20036;-77
2021/12/24 00:36:49;;;;;;;255.07;65.53;;;5.40;99.90;;;;;;5115389;28;20499;-77
2021/12/24 00:39:15;;;;;;;242.60;62.33;;;5.40;99.90;;;;;;5083423;28;20127;-77
2021/12/24 00:41:40;;;;;;;249.15;61.67;;;5.40;99.90;;;;;;5094241;28;20469;-77
2021/12/24 00:44:06;;;;;;;227.60;61.42;;;5.40;99.90;;;;;;5110578;28;20039;-77
2021/12/24 00:46:34;;;;;;;240.23;63.72;;;5.40;99.90;;;;;;5114625;28;20048;-77
2021/12/24 00:49:01;;;;;;;226.45;62.00;;;5.40;99.90;;;;;;5099575;28;20052;-76
2021/12/24 00:56:56;;;;;;;266.88;66.55;;;5.50;99.90;;;;;;5074492;28;20080;-77
2021/12/24 00:59:21;;;;;;;222.65;60.60;;;5.60;99.90;;;;;;5109407;28;20417;-77
2021/12/24 01:01:47;;;;;;;216.07;56.03;;;5.60;99.90;;;;;;5114213;28;20047;-77
2021/12/24 01:04:13;;;;;;;233.73;60.50;;;5.60;99.90;;;;;;5109898;28;20055;-77
2021/12/24 01:06:39;;;;;;;211.43;58.55;;;5.60;99.90;;;;;;5114233;28;20040;-77
2021/12/24 01:09:04;;;;;;;197.32;58.20;;;5.70;99.90;;;;;;5084894;28;20517;-77
2021/12/24 01:11:31;;;;;;;203.65;56.88;;;5.70;99.90;;;;;;5073472;28;20044;-76
2021/12/24 01:13:58;;;;;;;183.98;56.85;;;5.70;99.90;;;;;;5106537;28;20055;-77
2021/12/24 01:16:52;;;;;;;185.48;54.25;;;5.70;99.90;;;;;;5114553;27;20047;-76
2021/12/24 01:19:12;;;;;;;187.38;54.03;;;5.70;99.90;;;;;;5095692;28;20447;-77
2021/12/24 01:24:19;;;;;;;206.80;55.70;;;5.80;99.90;;;;;;5099660;28;20040;-77
2021/12/24 01:26:57;;;;;;;193.40;56.42;;;5.80;99.90;;;;;;5093618;28;20058;-77
2021/12/24 01:42:43;;;;;;;195.80;52.88;;;6.00;99.90;;;;;;5098542;28;20047;-75
2021/12/24 01:45:19;;;;;;;183.73;53.05;;;6.00;99.90;;;;;;5114041;28;20503;-77
2021/12/24 01:47:46;;;;;;;187.85;56.28;;;6.00;99.90;;;;;;5112522;28;20035;-76
2021/12/24 01:50:12;;;;;;;191.45;54.35;;;6.10;99.90;;;;;;5113893;28;20087;-77
2021/12/24 01:52:39;;;;;;;187.18;54.10;;;6.10;99.90;;;;;;5111467;28;20126;-76
2021/12/24 01:55:06;;;;;;;192.13;51.90;;;6.10;99.90;;;;;;5100514;28;20119;-76
2021/12/24 01:57:32;;;;;;;171.63;50.20;;;6.10;99.90;;;;;;5093247;28;20124;-71
2021/12/24 01:59:59;;;;;;;196.23;53.05;;;6.20;99.90;;;;;;5093635;28;20040;-76
2021/12/24 02:02:27;;;;;;;176.95;49.78;;;6.20;99.90;;;;;;5111889;28;20051;-76
2021/12/24 02:04:52;;;;;;;184.88;50.90;;;6.20;99.90;;;;;;5107265;28;20076;-77
2021/12/24 02:07:18;;;;;;;171.57;50.10;;;6.30;99.90;;;;;;5093241;28;20071;-77
2021/12/24 02:09:44;;;;;;;173.57;50.22;;;6.30;99.90;;;;;;5095404;28;20048;-76
2021/12/24 02:12:11;;;;;;;149.30;45.97;;;6.30;99.90;;;;;;5074530;28;20036;-76
2021/12/24 02:14:39;;;;;;;125.18;41.83;;;6.40;99.90;;;;;;5106757;28;20071;-71
2021/12/24 02:28:21;;;;;;;107.60;39.00;;;6.70;99.90;;;;;;5072185;28;20059;-76
2021/12/24 02:30:46;;;;;;;113.75;38.20;;;6.80;99.90;;;;;;5077177;28;20050;-76
2021/12/24 02:33:13;;;;;;;100.63;37.72;;;6.90;99.90;;;;;;5092564;28;20118;-76
2021/12/24 02:35:40;;;;;;;104.38;36.47;;;7.00;99.90;;;;;;5090853;28;20044;-71
2021/12/24 02:38:06;;;;;;;101.68;36.95;;;7.10;99.90;;;;;;5092787;28;20040;-76
2021/12/24 02:40:33;;;;;;;94.53;35.88;;;7.20;99.90;;;;;;5092932;28;20048;-75
2021/12/24 02:42:59;;;;;;;93.70;34.55;;;7.30;99.90;;;;;;5092959;28;20040;-76
2021/12/24 02:45:27;;;;;;;104.40;35.33;;;7.40;99.90;;;;;;5093945;28;20113;-76
2021/12/24 02:56:05;;;;;;;90.43;32.90;;;7.70;99.90;;;;;;5086891;28;20098;-76
2021/12/24 02:58:40;;;;;;;90.30;32.95;;;7.70;99.90;;;;;;5112953;28;20051;-77
2021/12/24 03:01:06;;;;;;;84.57;31.25;;;7.80;99.90;;;;;;5071800;28;20045;-76
2021/12/24 03:03:33;;;;;;;87.00;32.58;;;7.80;99.90;;;;;;5072391;28;20045;-76
2021/12/24 03:05:58;;;;;;;92.15;32.15;;;7.90;99.90;;;;;;5095885;28;20392;-77
2021/12/24 03:08:24;;;;;;;79.57;30.95;;;7.90;99.90;;;;;;5084125;28;20045;-77
2021/12/24 03:10:52;;;;;;;87.22;31.48;;;7.90;99.90;;;;;;5092740;28;20516;-76
2021/12/24 03:13:18;;;;;;;78.55;29.25;;;8.00;99.90;;;;;;5091487;28;20101;-76
2021/12/24 03:15:47;;;;;;;80.72;28.75;;;8.10;99.90;;;;;;5109609;28;20481;-72
2021/12/24 03:18:13;;;;;;;66.90;25.90;;;8.10;99.90;;;;;;5112433;28;20381;-77
2021/12/24 03:20:39;;;;;;;68.20;26.25;;;8.10;99.90;;;;;;5112048;28;20043;-76
2021/12/24 03:23:21;;;;;;;63.33;24.75;;;8.20;99.90;;;;;;5077147;28;20048;-77
2021/12/24 03:25:47;;;;;;;57.55;22.98;;;8.20;99.90;;;;;;5105987;28;20058;-76
2021/12/24 03:28:12;;;;;;;56.17;22.73;;;8.30;99.90;;;;;;5112881;28;20048;-77
2021/12/24 03:30:38;;;;;;;55.53;21.92;;;8.30;99.90;;;;;;5110193;28;20472;-77
2021/12/24 03:33:04;;;;;;;52.72;21.38;;;8.40;99.90;;;;;;5112071;28;20044;-77
2021/12/24 03:35:29;;;;;;;53.85;21.55;;;8.40;99.90;;;;;;5109822;28;20120;-77
2021/12/24 03:37:55;;;;;;;50.60;20.42;;;8.40;99.90;;;;;;5084868;28;20067;-77
2021/12/24 03:40:21;;;;;;;51.10;19.50;;;8.40;99.90;;;;;;5088578;28;20054;-77
2021/12/24 03:42:47;;;;;;;48.60;19.10;;;8.40;99.90;;;;;;5091936;28;20040;-71
2021/12/24 03:45:27;;;;;;;47.47;19.33;;;8.40;99.90;;;;;;5105554;28;20060;-76
2021/12/24 03:47:58;;;;;;;44.42;18.23;;;8.40;99.90;;;;;;5115145;28;20044;-76
2021/12/24 03:50:37;;;;;;;41.78;17.92;;;8.40;99.90;;;;;;5114153;28;20052;-76
2021/12/24 03:54:55;;;;;;;47.28;18.60;;;8.40;99.90;;;;;;5095136;27;20044;-76
2021/12/24 03:55:49;;;;;;;40.67;16.77;;;8.40;99.90;;;;;;5110303;28;20094;-72
2021/12/24 03:58:14;;;;;;;32.45;15.02;;;8.40;99.90;;;;;;5114952;28;20075;-76
2021/12/24 04:00:40;;;;;;;32.40;14.40;;;8.40;99.90;;;;;;5115295;28;20036;-76
2021/12/24 04:03:05;;;;;;;36.28;15.32;;;8.50;99.90;;;;;;5115110;28;20053;-74
2021/12/24 04:05:31;;;;;;;39.40;16.13;;;8.50;99.90;;;;;;5096119;28;20054;-76
2021/12/24 04:07:57;;;;;;;37.67;16.35;;;8.50;99.90;;;;;;5099224;28;20036;-76
2021/12/24 04:12:48;;;;;;;46.83;19.45;;;8.50;99.90;;;;;;5115852;28;20087;-77
2021/12/24 04:15:14;;;;;;;51.78;20.35;;;8.50;99.90;;;;;;5114605;28;20043;-76
2021/12/24 04:17:42;;;;;;;54.38;21.42;;;8.50;99.90;;;;;;5115818;28;20054;-77
2021/12/24 04:25:37;;;;;;;70.60;25.15;;;8.50;99.90;;;;;;5111462;28;20131;-76
2021/12/24 04:28:03;;;;;;;72.88;24.52;;;8.50;99.90;;;;;;5114891;28;20126;-76
2021/12/24 04:30:38;;;;;;;70.63;24.67;;;8.60;99.90;;;;;;5100590;28;20051;-77
2021/12/24 04:33:12;;;;;;;81.43;27.05;;;8.50;99.90;;;;;;5094510;28;20087;-77
2021/12/24 04:35:45;;;;;;;75.60;27.25;;;8.50;99.90;;;;;;5110416;28;20051;-77
2021/12/24 04:51:48;;;;;;;75.07;28.45;;;8.60;99.90;;;;;;5109979;28;20090;-77
2021/12/24 05:05:24;;;;;;;78.25;29.90;;;8.60;99.90;;;;;;5112777;28;20083;-77
2021/12/24 05:10:29;;;;;;;80.15;30.67;;;8.50;99.90;;;;;;5094030;28;20047;-77
2021/12/24 05:12:54;;;;;;;80.28;30.75;;;8.50;99.90;;;;;;5079961;28;20036;-78
2021/12/24 05:15:20;;;;;;;80.47;31.85;;;8.50;99.90;;;;;;5102765;28;20827;-76
2021/12/24 05:23:08;;;;;;;81.88;31.67;;;8.50;99.90;;;;;;5084003;28;20046;-77
2021/12/24 05:25:37;;;;;;;75.53;30.92;;;8.50;99.90;;;;;;5104824;28;20040;-77
2021/12/24 05:28:03;;;;;;;78.20;29.83;;;8.50;99.90;;;;;;5097229;28;20039;-75
2021/12/24 05:30:29;;;;;;;74.22;29.98;;;8.60;99.90;;;;;;5114288;28;20395;-77
2021/12/24 05:32:54;;;;;;;71.10;29.25;;;8.60;99.90;;;;;;5111716;28;20047;-77
2021/12/24 05:35:20;;;;;;;68.65;28.33;;;8.50;99.90;;;;;;5097318;28;20098;-77
2021/12/24 05:37:46;;;;;;;68.00;28.33;;;8.50;99.90;;;;;;5081746;28;20123;-76
2021/12/24 05:40:12;;;;;;;73.88;28.75;;;8.50;99.90;;;;;;5093985;28;20503;-76
2021/12/24 05:42:37;;;;;;;69.18;27.13;;;8.60;99.90;;;;;;5093769;28;20044;-78
2021/12/24 05:45:06;;;;;;;66.47;27.90;;;8.50;99.90;;;;;;5112408;28;20055;-72
2021/12/24 05:47:32;;;;;;;66.75;27.95;;;8.60;99.90;;;;;;5093774;28;20054;-77
2021/12/24 05:49:59;;;;;;;61.92;26.05;;;8.60;99.90;;;;;;5111145;28;20083;-78
2021/12/24 05:52:26;;;;;;;62.30;26.20;;;8.60;99.90;;;;;;5099297;28;20932;-77
2021/12/24 05:54:52;;;;;;;59.30;25.45;;;8.60;99.90;;;;;;5106046;28;20040;-77
2021/12/24 05:57:17;;;;;;;64.53;26.13;;;8.60;99.90;;;;;;5097738;28;20378;-77
2021/12/24 05:59:43;;;;;;;65.20;26.95;;;8.60;99.90;;;;;;5093122;28;20093;-77
2021/12/24 06:02:09;;;;;;;68.35;30.05;;;8.60;99.90;;;;;;5106001;28;20050;-76
2021/12/24 06:04:35;;;;;;;68.25;27.52;;;8.60;99.90;;;;;;5104905;28;20050;-77
2021/12/24 06:07:01;;;;;;;60.17;26.65;;;8.60;99.90;;;;;;5102973;28;20438;-78
2021/12/24 06:09:26;;;;;;;66.15;27.80;;;8.60;99.90;;;;;;5091676;28;20043;-77
2021/12/24 06:11:52;;;;;;;60.80;25.42;;;8.60;99.90;;;;;;5113145;28;20036;-77
2021/12/24 06:14:19;;;;;;;55.85;25.17;;;8.70;99.90;;;;;;5107829;28;20567;-77
2021/12/24 06:16:51;;;;;;;59.45;25.25;;;8.60;99.90;;;;;;5096557;28;20039;-77
2021/12/24 06:19:18;;;;;;;57.40;24.35;;;8.60;99.90;;;;;;5096658;28;20052;-78
2021/12/24 06:21:44;;;;;;;50.08;23.67;;;8.60;99.90;;;;;;5079619;28;20039;-78
2021/12/24 06:24:12;;;;;;;48.60;23.17;;;8.70;99.90;;;;;;5112926;28;20042;-72
2021/12/24 06:26:38;;;;;;;50.83;23.05;;;8.60;99.90;;;;;;5110421;28;20055;-77
2021/12/24 06:29:04;;;;;;;52.15;24.17;;;8.60;99.90;;;;;;5091426;28;20070;-79
2021/12/24 06:31:30;;;;;;;47.75;23.63;;;8.60;99.90;;;;;;5092736;28;20036;-77
2021/12/24 06:33:56;;;;;;;46.65;22.75;;;8.60;99.90;;;;;;5108579;28;20492;-78
2021/12/24 06:36:21;;;;;;;46.20;23.30;;;8.60;99.90;;;;;;5112621;28;20047;-78
2021/12/24 06:38:47;;;;;;;48.22;23.52;;;8.60;99.90;;;;;;5093429;28;20089;-78
2021/12/24 06:41:13;;;;;;;48.15;22.90;;;8.60;99.90;;;;;;5077844;28;20044;-75
2021/12/24 06:43:38;;;;;;;52.28;23.27;;;8.60;99.90;;;;;;5107808;28;20056;-78
2021/12/24 06:46:11;;;;;;;46.08;22.90;;;8.60;99.90;;;;;;5113082;28;20040;-78
2021/12/24 06:48:38;;;;;;;43.78;23.48;;;8.60;99.90;;;;;;5112190;28;20050;-78
2021/12/24 06:51:04;;;;;;;42.72;22.50;;;8.60;99.90;;;;;;5094900;28;20124;-78
2021/12/24 06:53:29;;;;;;;49.85;22.42;;;8.60;99.90;;;;;;5091633;28;20533;-77
2021/12/24 06:55:55;;;;;;;47.13;22.92;;;8.60;99.90;;;;;;5092325;28;20055;-78
2021/12/24 06:58:21;;;;;;;45.78;21.35;;;8.60;99.90;;;;;;5107264;28;20122;-77
2021/12/24 07:00:47;;;;;;;40.90;20.55;;;8.60;99.90;;;;;;5108640;28;20492;-78
2021/12/24 07:03:13;;;;;;;39.97;19.83;;;8.60;99.90;;;;;;5077506;28;20064;-74
2021/12/24 07:05:38;;;;;;;39.55;20.85;;;8.60;99.90;;;;;;5109511;28;20039;-77
2021/12/24 07:08:04;;;;;;;42.10;20.40;;;8.60;99.90;;;;;;5099555;28;20477;-78
2021/12/24 07:10:30;;;;;;;38.83;19.42;;;8.60;99.90;;;;;;5091963;28;20043;-76
2021/12/24 07:12:56;;;;;;;39.30;19.35;;;8.60;99.90;;;;;;5092692;28;20515;-78
2021/12/24 07:15:22;;;;;;;38.28;18.75;;;8.60;99.90;;;;;;5092981;28;20384;-78
2021/12/24 07:17:48;;;;;;;37.38;19.27;;;8.60;99.90;;;;;;5078587;28;20097;-78
2021/12/24 07:20:14;;;;;;;42.83;18.88;;;8.50;99.90;;;;;;5089339;28;20445;-77
2021/12/24 07:22:40;;;;;;;39.53;18.98;;;8.50;99.90;;;;;;5115068;28;20040;-77
2021/12/24 07:25:06;;;;;;;39.13;18.75;;;8.50;99.90;;;;;;5109651;28;20093;-78
2021/12/24 07:27:33;;;;;;;43.42;18.48;;;8.50;99.90;;;;;;5088343;28;20079;-77
2021/12/24 07:29:59;;;;;;;33.95;18.13;;;8.50;99.90;;;;;;5087006;28;20492;-78
2021/12/24 07:32:25;;;;;;;39.30;18.80;;;8.50;99.90;;;;;;5116137;28;20078;-77
2021/12/24 07:34:51;;;;;;;39.95;18.58;;;8.50;99.90;;;;;;5111948;28;20493;-77
2021/12/24 07:37:17;;;;;;;35.08;17.60;;;8.50;99.90;;;;;;5094613;28;20051;-76
2021/12/24 07:39:42;;;;;;;32.22;16.52;;;8.50;99.90;;;;;;5095459;28;20054;-78
2021/12/24 07:42:08;;;;;;;38.33;17.02;;;8.40;99.90;;;;;;5096005;28;20050;-78
2021/12/24 07:44:35;;;;;;;33.85;17.30;;;8.40;99.90;;;;;;5097866;28;20431;-78
2021/12/24 07:47:04;;;;;;;33.03;17.73;;;8.40;99.90;;;;;;5095994;28;20055;-78
2021/12/24 07:49:32;;;;;;;31.33;17.25;;;8.40;99.90;;;;;;5088855;28;20110;-78
2021/12/24 07:52:08;;;;;;;33.15;16.77;;;8.40;99.90;;;;;;5095920;28;20111;-77
2021/12/24 07:54:46;;;;;;;43.08;18.42;;;8.40;99.90;;;;;;5103145;28;20122;-77
2021/12/24 07:57:14;;;;;;;44.83;17.80;;;8.40;99.90;;;;;;5116089;28;20484;-77
2021/12/24 07:59:41;;;;;;;33.55;17.45;;;8.40;99.90;;;;;;5103607;28;20071;-77
2021/12/24 08:02:10;;;;;;;34.40;17.23;;;8.40;99.90;;;;;;5095810;28;20047;-78
2021/12/24 08:04:38;;;;;;;31.60;15.80;;;8.40;99.90;;;;;;5102128;28;20047;-78
2021/12/24 08:07:05;;;;;;;37.50;16.75;;;8.40;99.90;;;;;;5116055;28;20385;-78
2021/12/24 08:09:30;;;;;;;36.92;16.42;;;8.40;99.90;;;;;;5098156;27;20040;-77
2021/12/24 08:11:56;;;;;;;37.65;16.48;;;8.40;99.90;;;;;;5079493;28;20567;-77
2021/12/24 08:14:22;;;;;;;34.88;15.65;;;8.40;99.90;;;;;;5096640;28;20048;-77
2021/12/24 08:16:48;;;;;;;30.05;14.75;;;8.40;99.90;;;;;;5110795;28;20071;-78
2021/12/24 08:19:16;;;;;;;32.13;14.55;;;8.40;99.90;;;;;;5113789;28;20094;-77
2021/12/24 08:21:45;;;;;;;31.08;13.90;;;8.40;99.90;;;;;;5094625;28;20070;-78
2021/12/24 08:24:11;;;;;;;28.92;13.25;;;8.30;99.90;;;;;;5095253;28;20051;-78
2021/12/24 08:26:37;;;;;;;33.22;14.52;;;8.30;99.90;;;;;;5112361;28;20055;-78
2021/12/24 08:29:03;;;;;;;32.08;14.68;;;8.40;99.90;;;;;;5114762;28;20048;-78
2021/12/24 08:31:29;;;;;;;28.67;14.02;;;8.40;99.90;;;;;;5113653;28;20046;-78
2021/12/24 08:33:55;;;;;;;28.73;14.40;;;8.40;99.90;;;;;;5114705;28;20048;-78
2021/12/24 08:36:20;;;;;;;29.67;14.40;;;8.40;99.90;;;;;;5099869;27;20052;-78
2021/12/24 08:38:46;;;;;;;26.02;14.38;;;8.40;99.90;;;;;;5095941;28;20503;-78
2021/12/24 08:41:12;;;;;;;30.58;14.88;;;8.40;99.90;;;;;;5095345;28;20036;-78
2021/12/24 08:43:37;;;;;;;29.55;15.35;;;8.40;99.90;;;;;;5107986;28;20553;-78
2021/12/24 08:46:03;;;;;;;26.85;15.43;;;8.40;99.90;;;;;;5114592;28;20050;-78
2021/12/24 08:48:29;;;;;;;33.03;15.52;;;8.40;99.90;;;;;;5103032;28;20123;-77
2021/12/24 08:50:56;;;;;;;31.80;15.05;;;8.40;99.90;;;;;;5110845;28;20135;-78
2021/12/24 08:53:23;;;;;;;33.78;14.77;;;8.40;99.90;;;;;;5105034;28;20419;-78
2021/12/24 08:55:50;;;;;;;31.80;14.30;;;8.40;99.90;;;;;;5094499;28;20427;-78
2021/12/24 08:58:15;;;;;;;31.45;14.20;;;8.40;99.90;;;;;;5103365;28;20507;-78
2021/12/24 09:00:42;;;;;;;30.05;13.75;;;8.40;99.90;;;;;;5114495;28;20127;-77
2021/12/24 09:03:08;;;;;;;25.90;14.23;;;8.40;99.90;;;;;;5113625;28;20051;-78
2021/12/24 09:05:34;;;;;;;28.55;14.00;;;8.40;99.90;;;;;;5114081;28;20040;-76
2021/12/24 09:08:01;;;;;;;25.65;13.13;;;8.40;99.90;;;;;;5109540;28;20040;-78
2021/12/24 09:10:27;;;;;;;29.33;13.57;;;8.40;99.90;;;;;;5094735;28;20044;-78
2021/12/24 09:12:53;;;;;;;35.22;13.40;;;8.40;99.90;;;;;;5095220;28;20040;-78
2021/12/24 09:15:19;;;;;;;34.22;14.63;;;8.40;99.90;;;;;;5094555;28;20098;-78
2021/12/24 09:17:47;;;;;;;31.17;13.68;;;8.40;99.90;;;;;;5098350;28;20056;-78
2021/12/24 09:20:25;;;;;;;25.90;12.68;;;8.40;99.90;;;;;;5115026;28;20093;-78
2021/12/24 09:22:54;;;;;;;27.25;12.02;;;8.40;99.90;;;;;;5108473;28;20078;-78
2021/12/24 09:25:22;;;;;;;32.97;12.63;;;8.50;99.90;;;;;;5094379;28;20176;-78
2021/12/24 09:27:48;;;;;;;33.95;12.30;;;8.50;99.90;;;;;;5095105;28;20032;-78
2021/12/24 09:30:14;;;;;;;29.77;13.40;;;8.50;99.90;;;;;;5093888;28;20055;-78
2021/12/24 09:32:39;;;;;;;29.58;11.23;;;8.50;99.90;;;;;;5096080;28;20416;-80
2021/12/24 09:35:07;;;;;;;27.27;12.25;;;8.50;99.90;;;;;;5114465;28;20053;-81
2021/12/24 09:37:33;;;;;;;29.38;12.13;;;8.50;99.90;;;;;;5110681;28;20052;-79
2021/12/24 09:39:58;;;;;;;32.38;17.23;;;8.50;99.90;;;;;;5072858;28;20048;-80
2021/12/24 09:42:25;;;;;;;25.27;10.93;;;8.50;99.90;;;;;;5104487;28;20051;-80
2021/12/24 09:44:51;;;;;;;27.02;11.95;;;8.60;99.90;;;;;;5092970;28;20125;-81
2021/12/24 09:47:17;;;;;;;28.25;11.63;;;8.50;99.90;;;;;;5105294;28;20484;-81
2021/12/24 09:49:43;;;;;;;24.02;11.65;;;8.60;99.90;;;;;;5100889;28;20062;-70
2021/12/24 09:52:10;;;;;;;30.58;12.65;;;8.50;99.90;;;;;;5107454;28;20044;-80
2021/12/24 09:54:35;;;;;;;24.85;12.48;;;8.60;99.90;;;;;;5112026;28;20484;-80
2021/12/24 09:57:01;;;;;;;23.50;12.15;;;8.60;99.90;;;;;;5111330;28;20069;-80
2021/12/24 09:59:27;;;;;;;27.38;12.95;;;8.60;99.90;;;;;;5107672;28;20051;-79
2021/12/24 10:01:57;;;;;;;26.58;10.90;;;8.60;99.90;;;;;;5091542;28;20044;-81
2021/12/24 10:04:29;;;;;;;26.40;12.20;;;8.60;99.90;;;;;;5093739;28;20100;-80
2021/12/24 10:07:03;;;;;;;21.85;13.20;;;8.60;99.90;;;;;;5092853;28;20044;-79
2021/12/24 10:09:36;;;;;;;25.73;13.02;;;8.60;99.90;;;;;;5107181;28;20066;-81
2021/12/24 10:12:09;;;;;;;25.58;11.73;;;8.60;99.90;;;;;;5104124;28;20122;-74
2021/12/24 10:14:37;;;;;;;22.13;11.63;;;8.60;99.90;;;;;;5092407;27;20040;-78
2021/12/24 10:17:12;;;;;;;25.17;12.48;;;8.70;99.90;;;;;;5097566;28;20085;-77
2021/12/24 10:19:49;;;;;;;23.90;12.18;;;8.70;99.90;;;;;;5098559;28;20064;-80
2021/12/24 10:22:16;;;;;;;25.35;13.15;;;8.70;99.90;;;;;;5102051;28;20040;-79
2021/12/24 10:24:42;;;;;;;24.42;11.45;;;8.70;99.90;;;;;;5087679;28;20397;-78
2021/12/24 10:27:08;;;;;;;22.23;10.05;;;8.70;99.90;;;;;;5087486;28;20047;-76
2021/12/24 10:29:35;;;;;;;19.45;9.43;;;8.70;99.90;;;;;;5098831;28;20051;-79
2021/12/24 10:32:15;;;;;;;15.38;8.80;;;8.70;99.90;;;;;;5105036;28;20115;-79
2021/12/24 10:34:43;;;;;;;17.60;8.40;;;8.70;99.90;;;;;;5093115;28;20084;-72
2021/12/24 10:37:10;;;;;;;12.75;8.95;;;8.70;99.90;;;;;;5086117;28;20051;-79
2021/12/24 10:39:54;;;;;;;21.35;11.15;;;8.70;99.90;;;;;;5084637;28;20055;-76
2021/12/24 10:42:25;;;;;;;17.48;9.48;;;8.70;99.90;;;;;;5089340;28;20040;-77
2021/12/24 10:44:53;;;;;;;16.88;9.05;;;8.70;99.90;;;;;;5087449;28;20044;-79
2021/12/24 10:47:41;;;;;;;19.35;8.57;;;8.70;99.90;;;;;;5089748;28;20051;-79
2021/12/24 10:55:54;;;;;;;16.05;7.95;;;8.70;99.90;;;;;;5086492;28;20071;-79
2021/12/24 10:58:23;;;;;;;17.27;8.67;;;8.70;99.90;;;;;;5091689;28;20063;-79
2021/12/24 11:00:54;;;;;;;18.60;8.60;;;8.70;99.90;;;;;;5105445;28;20093;-78
2021/12/24 11:03:25;;;;;;;17.52;8.85;;;8.70;99.90;;;;;;5090344;28;20519;-80
2021/12/24 11:06:03;;;;;;;17.42;8.65;;;8.70;99.90;;;;;;5090103;28;20044;-80
2021/12/24 11:08:29;;;;;;;18.33;8.90;;;8.70;99.90;;;;;;5092312;28;20051;-79
2021/12/24 11:11:00;;;;;;;19.38;9.05;;;8.70;99.90;;;;;;5098793;28;20040;-71
2021/12/24 11:13:38;;;;;;;20.45;8.45;;;8.70;99.90;;;;;;5092262;28;20131;-76
2021/12/24 11:16:06;;;;;;;14.30;9.23;;;8.70;99.90;;;;;;5086078;28;20094;-77
2021/12/24 11:18:35;;;;;;;21.48;9.20;;;8.70;99.90;;;;;;5098537;28;20036;-79
2021/12/24 11:21:03;;;;;;;20.77;8.93;;;8.70;99.90;;;;;;5099588;28;20107;-79
2021/12/24 11:23:31;;;;;;;17.60;8.50;;;8.70;99.90;;;;;;5089289;28;20182;-77
2021/12/24 11:26:02;;;;;;;18.27;8.90;;;8.70;99.90;;;;;;5087725;28;20085;-79
2021/12/24 11:28:28;;;;;;;18.55;8.80;;;8.70;99.90;;;;;;5087472;28;20040;-78
2021/12/24 11:31:00;;;;;;;18.15;9.07;;;8.70;99.90;;;;;;5088578;28;20073;-78
2021/12/24 11:33:30;;;;;;;20.63;11.75;;;8.70;99.90;;;;;;5089651;28;20044;-80
2021/12/24 11:35:58;;;;;;;21.88;10.00;;;8.80;99.90;;;;;;5098425;28;20052;-75
2021/12/24 11:38:27;;;;;;;24.85;12.93;;;8.80;99.90;;;;;;5089240;28;20048;-79
2021/12/24 11:40:57;;;;;;;22.55;10.45;;;8.80;99.90;;;;;;5088292;28;20040;-78
2021/12/24 11:43:28;;;;;;;15.88;9.25;;;8.80;99.90;;;;;;5092359;28;20048;-78
2021/12/24 11:46:03;;;;;;;16.95;9.27;;;8.80;99.90;;;;;;5085768;28;20576;-79
2021/12/24 11:48:32;;;;;;;17.30;9.40;;;8.80;99.90;;;;;;5075718;28;20048;-79
2021/12/24 11:51:00;;;;;;;21.27;9.15;;;8.70;99.90;;;;;;5087872;28;20058;-80
2021/12/24 11:53:27;;;;;;;21.27;9.23;;;8.70;99.90;;;;;;5088799;28;20056;-75
2021/12/24 11:55:53;;;;;;;23.70;9.45;;;8.80;99.90;;;;;;5068174;28;20566;-78
2021/12/24 11:58:26;;;;;;;22.77;10.50;;;8.70;99.90;;;;;;5068659;28;20128;-79
2021/12/24 12:00:55;;;;;;;22.75;10.98;;;8.80;99.90;;;;;;5083583;28;20040;-74
2021/12/24 12:03:55;;;;;;;25.45;10.43;;;8.70;99.90;;;;;;5089156;28;20044;-79
2021/12/24 12:06:23;;;;;;;23.95;10.13;;;8.70;99.90;;;;;;5088940;28;20044;-76
2021/12/24 12:08:58;;;;;;;24.77;9.98;;;8.70;99.90;;;;;;5090093;28;20484;-79
2021/12/24 12:11:31;;;;;;;20.65;9.23;;;8.70;99.90;;;;;;5092394;28;20045;-78
2021/12/24 12:14:10;;;;;;;19.25;8.60;;;8.60;99.90;;;;;;5090767;28;20052;-78
2021/12/24 12:16:39;;;;;;;18.70;8.77;;;8.60;99.90;;;;;;5091918;28;20048;-77
2021/12/24 12:19:20;;;;;;;8.38;3.85;;;8.60;99.90;;;;;;5091006;28;20040;-80
2021/12/24 12:22:14;;;;;;;1.02;0.93;;;8.60;99.90;;;;;;5091920;28;20044;-77
2021/12/24 12:27:26;;;;;;;1.75;1.33;;;7.90;99.90;;;;;;5095461;28;20048;-79
2021/12/24 12:29:51;;;;;;;2.05;1.30;;;7.60;99.90;;;;;;5104283;28;20043;-79
2021/12/24 12:32:17;;;;;;;1.88;1.30;;;7.40;99.90;;;;;;5108625;28;20123;-79
2021/12/24 12:34:43;;;;;;;1.63;1.52;;;7.20;99.90;;;;;;5103142;28;20043;-74
2021/12/24 12:37:18;;;;;;;2.33;2.13;;;7.00;99.90;;;;;;5101659;28;20043;-80
2021/12/24 12:40:18;;;;;;;2.25;2.00;;;6.90;99.90;;;;;;5094630;28;20048;-79
2021/12/24 12:42:50;;;;;;;2.30;2.03;;;6.90;99.90;;;;;;5069878;28;20051;-79
2021/12/24 12:45:22;;;;;;;2.60;2.40;;;6.80;99.90;;;;;;5088394;28;20067;-78
2021/12/24 12:47:57;;;;;;;2.45;2.25;;;6.80;99.90;;;;;;5099530;28;20062;-79
2021/12/24 12:50:24;;;;;;;2.50;2.30;;;6.70;99.90;;;;;;5087261;28;20086;-75
2021/12/24 12:52:54;;;;;;;3.13;2.83;;;6.70;99.90;;;;;;5097195;28;20051;-77
2021/12/24 12:55:32;;;;;;;3.05;2.78;;;6.70;99.90;;;;;;5092950;28;20044;-78
2021/12/24 12:58:19;;;;;;;2.67;2.47;;;6.70;99.90;;;;;;5104451;28;20145;-78
2021/12/24 13:01:12;;;;;;;3.63;3.33;;;6.70;99.90;;;;;;5100362;28;20040;-78
2021/12/24 13:03:56;;;;;;;3.35;3.08;;;6.60;99.90;;;;;;5094557;28;20040;-78
2021/12/24 13:06:34;;;;;;;2.80;2.60;;;6.70;99.90;;;;;;5097466;28;20652;-78
2021/12/24 13:09:03;;;;;;;2.40;2.20;;;6.70;99.90;;;;;;5073678;28;20054;-73
2021/12/24 13:11:35;;;;;;;2.30;2.10;;;6.70;99.90;;;;;;5098133;28;20040;-78
2021/12/24 13:14:02;;;;;;;2.65;2.45;;;6.70;99.90;;;;;;5095366;28;20086;-72
2021/12/24 13:16:34;;;;;;;2.50;2.30;;;6.70;99.90;;;;;;5094110;28;20501;-78
2021/12/24 13:24:17;;;;;;;3.40;3.10;;;6.70;99.90;;;;;;5093130;28;20048;-77
2021/12/24 13:26:45;;;;;;;2.95;2.75;;;6.60;99.90;;;;;;5091480;28;20044;-78
2021/12/24 13:29:22;;;;;;;3.28;3.03;;;6.60;99.90;;;;;;5087795;28;20047;-77
2021/12/24 13:31:56;;;;;;;3.25;3.05;;;6.60;99.90;;;;;;5097827;28;20036;-78
2021/12/24 13:34:23;;;;;;;3.75;3.20;;;6.50;99.90;;;;;;5093164;28;20505;-77
2021/12/24 13:36:49;;;;;;;3.42;3.20;;;6.50;99.90;;;;;;5094137;28;20525;-76
2021/12/24 13:39:23;;;;;;;3.67;3.38;;;6.50;99.90;;;;;;5093478;28;20093;-76
2021/12/24 13:41:58;;;;;;;4.07;3.78;;;6.50;99.90;;;;;;5098475;28;20061;-77
2021/12/24 13:44:27;;;;;;;4.47;4.07;;;6.50;99.90;;;;;;5112002;28;20079;-77
2021/12/24 13:55:35;;;;;;;5.50;5.10;;;6.40;99.90;;;;;;5107295;28;20123;-77
2021/12/24 13:58:10;;;;;;;5.20;4.80;;;6.40;99.90;;;;;;5099728;28;20044;-77
2021/12/24 14:00:48;;;;;;;6.20;5.60;;;6.40;99.90;;;;;;5093313;28;20044;-76
2021/12/24 14:03:14;;;;;;;6.45;5.85;;;6.30;99.90;;;;;;5092473;28;20093;-77
2021/12/24 14:05:44;;;;;;;5.95;5.35;;;6.30;99.90;;;;;;5093864;28;20048;-77
2021/12/24 14:08:12;;;;;;;5.97;5.47;;;6.30;99.90;;;;;;5093210;28;20132;-76
2021/12/24 14:10:40;;;;;;;6.13;5.63;;;6.30;99.90;;;;;;5093246;28;20084;-77
2021/12/24 14:13:12;;;;;;;5.57;5.10;;;6.30;99.90;;;;;;5093502;28;20101;-76
2021/12/24 14:15:55;;;;;;;5.70;5.20;;;6.30;99.90;;;;;;5093357;28;20051;-77
2021/12/24 14:18:50;;;;;;;6.63;6.07;;;6.30;99.90;;;;;;5093212;28;20382;-77
2021/12/24 14:24:12;;;;;;;5.88;5.38;;;6.30;99.90;;;;;;5093039;28;20443;-77
2021/12/24 14:26:55;;;;;;;6.07;5.57;;;6.30;99.90;;;;;;5093316;28;20054;-77
2021/12/24 14:29:26;;;;;;;6.32;5.72;;;6.20;99.90;;;;;;5092915;28;20055;-76
2021/12/24 14:32:06;;;;;;;6.28;5.78;;;6.30;99.90;;;;;;5072284;28;20119;-77
2021/12/24 14:34:35;;;;;;;5.97;5.47;;;6.20;99.90;;;;;;5072695;28;20052;-77
2021/12/24 14:37:23;;;;;;;6.15;5.55;;;6.20;99.90;;;;;;5072991;28;20048;-77
2021/12/24 14:39:53;;;;;;;6.43;5.88;;;6.30;99.90;;;;;;5069132;28;20109;-76
2021/12/24 14:42:31;;;;;;;6.60;6.10;;;6.20;99.90;;;;;;5092571;28;20036;-77
2021/12/24 14:45:14;;;;;;;6.50;5.95;;;6.20;99.90;;;;;;5093197;28;20480;-77
2021/12/24 14:47:40;;;;;;;6.35;5.80;;;6.30;99.90;;;;;;5093214;28;20052;-77
2021/12/24 14:50:09;;;;;;;6.72;5.78;;;6.30;99.90;;;;;;5092895;28;20051;-77
2021/12/24 14:52:35;;;;;;;6.30;5.80;;;6.30;99.90;;;;;;5091773;28;20052;-77
2021/12/24 14:55:22;;;;;;;5.68;5.28;;;6.20;99.90;;;;;;5091967;28;20063;-76
2021/12/24 14:57:57;;;;;;;6.38;5.78;;;6.20;99.90;;;;;;5092758;28;20075;-77